Caparra Heights, Puerto Rico
Current Conditions -  °F | °C
As of 9:56 AM on Friday 31 Oct 2014 (Local Time) from TJSJ Reporting Station
Scattered Clouds Scattered Clouds  
Wind Chill: 87°   Ceiling: Unl
Heat Index: 96°   Visibility: 10mi
Dew Point: 75°   Wind: 5mph
Humidity: 67%   Direction: 140°SE
Pressure: 29.9"   Gusts: NA
Location:  18.3829°N, 66.0647°W
Report Text: TJSJ 311356Z 14004KT 10SM FEW032 SCT065 31/24 A2990 RMK AO2 SLP124 T03060239
Loading
Personal Weather Stations






























Interactive Weather Map
Tropical Storm Tracking
New forecast layout! Learn more

10-Day Weather Forecast

Advertisements
Track Severe Weather on mobile